Saint Augustine, FL (32080)

1:05 PM EST on December 03, 2016 (GMT -0500)
Ritsis at Butler Beach | | Change Station

Elev 0 ft 29.79 °N, 81.26 °W | Updated 1 minute ago

Clear
Clear
75.1 °F
Feels Like 78 °F
N
9.0
Wind Variable Wind from NNW

Today
High -- | Low -- °F
--% Chance of Precip.
Yesterday
High -- | Low -- °F
Precip. -- in
Pressure 30.18 in
Visibility 10.0 miles
Clouds Clear
Heat Index 78 °F
Dew Point 51 °F
Humidity 43%
Rainfall 0.00 in
Snow Depth Not available.
7:04 AM 5:25 PM
Waxing Crescent, 16% visible
METAR KSGJ 031758Z 03010KT 10SM CLR 20/10 A3018 RMK AO2 SLP218 T02000100 10211 20106 58014
Pressure 30.18 in
Visibility 10.0 miles
Clouds Clear
Heat Index 78 °F
Dew Point 51 °F
Humidity 43%
Rainfall 0.00 in
Snow Depth Not available.
7:04 AM 5:25 PM
Waxing Crescent, 16% visible
METAR KSGJ 031758Z 03010KT 10SM CLR 20/10 A3018 RMK AO2 SLP218 T02000100 10211 20106 58014

10-Day Weather Forecast

Almanac

Astronomy

Dec. 03, 2016 Rise Set
Actual Time
Civil Twilight
Nautical Twilight
Astronomical Twilight
Moon
Length of Visible Light
Length of Day
Tomorrow will be .
, % of the Moon is Illuminated

Today's Extremes

State Highs State Lows

Community

WunderPhotos

Upload Photos

1,955,455 photos uploaded!

WunderBlog® & News

Nearby

Air Quality

  Air Quality AQ Index Pollutant
Not available.

Snow Depth

Station Depth Elevation

Earthquake Activity

City Distance Mag. Time & Date
Minimum magnitude displayed is 2.5.

Coastal Water Temperatures

Place Temperature

Stations

Nearby Weather Stations

Station Location Temp. Windchill Dew Point Humidity Wind Precip. Elev Updated Type
                   

Watches & Warnings

There are currently no watches in effect.